createdAt,value
2022-10-28T00:01:06.130Z,11.70
2022-10-28T00:03:34.991Z,11.80
2022-10-28T00:06:04.359Z,11.60
2022-10-28T00:08:32.793Z,11.60
2022-10-28T00:11:07.089Z,11.60
2022-10-28T00:13:36.030Z,11.50
2022-10-28T00:16:09.343Z,11.60
2022-10-28T00:18:37.794Z,11.60
2022-10-28T00:21:08.635Z,11.60
2022-10-28T00:23:36.825Z,11.70
2022-10-28T00:26:07.873Z,11.80
2022-10-28T00:28:36.234Z,12.00
2022-10-28T00:31:06.521Z,12.10
2022-10-28T00:33:34.670Z,12.10
2022-10-28T00:36:14.338Z,12.20
2022-10-28T00:38:43.801Z,12.20
2022-10-28T00:41:15.263Z,12.10
2022-10-28T00:43:45.737Z,12.10
2022-10-28T00:46:21.423Z,12.20
2022-10-28T00:48:53.250Z,12.30
2022-10-28T00:51:24.059Z,12.30
2022-10-28T00:53:54.247Z,12.30
2022-10-28T00:59:02.125Z,12.30
2022-10-28T01:01:30.341Z,12.30
2022-10-28T01:03:58.790Z,12.30
2022-10-28T01:06:28.732Z,12.20
2022-10-28T01:08:59.926Z,12.20
2022-10-28T01:11:52.545Z,12.20
2022-10-28T01:14:37.033Z,12.20
2022-10-28T01:17:28.539Z,12.20
2022-10-28T01:20:36.147Z,12.10
2022-10-28T01:23:15.362Z,12.10
2022-10-28T01:26:12.867Z,12.00
2022-10-28T01:29:12.150Z,12.00
2022-10-28T01:31:47.661Z,11.90
2022-10-28T01:34:27.738Z,11.90
2022-10-28T01:37:00.317Z,11.90
2022-10-28T01:39:34.122Z,11.90
2022-10-28T01:42:12.677Z,12.00
2022-10-28T01:44:49.535Z,11.80
2022-10-28T01:47:23.123Z,11.90
2022-10-28T01:49:57.855Z,11.80
2022-10-28T01:52:30.297Z,11.50
2022-10-28T01:55:03.207Z,11.20
2022-10-28T01:57:34.708Z,11.30
2022-10-28T02:00:04.333Z,11.30
2022-10-28T02:02:35.723Z,11.30
2022-10-28T02:05:06.812Z,11.00
2022-10-28T02:07:34.952Z,11.10
2022-10-28T02:10:13.667Z,10.90
2022-10-28T02:12:41.752Z,10.80
2022-10-28T02:15:40.270Z,10.80
2022-10-28T02:18:19.475Z,10.70
2022-10-28T02:20:52.498Z,10.60
2022-10-28T02:23:29.545Z,10.60
2022-10-28T02:26:01.857Z,10.50
2022-10-28T02:28:40.446Z,10.50
2022-10-28T02:31:17.183Z,10.50
2022-10-28T02:33:51.392Z,10.50
2022-10-28T02:36:21.553Z,10.50
2022-10-28T02:38:54.009Z,10.40
2022-10-28T02:41:27.024Z,10.40
2022-10-28T02:43:57.747Z,10.40
2022-10-28T02:46:27.211Z,10.40
2022-10-28T02:49:01.965Z,10.30
2022-10-28T02:51:35.666Z,10.40
2022-10-28T02:54:08.657Z,10.30
2022-10-28T02:56:40.325Z,10.30
2022-10-28T02:59:11.579Z,10.40
2022-10-28T03:01:40.195Z,10.50
2022-10-28T03:04:09.843Z,10.50
2022-10-28T03:06:38.318Z,10.60
2022-10-28T03:09:06.337Z,10.60
2022-10-28T03:11:34.484Z,10.80
2022-10-28T03:14:02.657Z,11.00
2022-10-28T03:16:30.600Z,11.20
2022-10-28T03:18:58.770Z,11.30
2022-10-28T03:21:28.112Z,11.40
2022-10-28T03:23:56.280Z,11.40
2022-10-28T03:26:24.269Z,11.40
2022-10-28T03:28:52.369Z,11.50
2022-10-28T03:31:20.439Z,11.50
2022-10-28T03:33:48.480Z,11.40
2022-10-28T03:36:16.479Z,11.20
2022-10-28T03:38:45.788Z,11.20
2022-10-28T03:41:13.741Z,11.30
2022-10-28T03:43:41.993Z,11.20
2022-10-28T03:46:09.981Z,10.90
2022-10-28T03:48:37.948Z,10.90
2022-10-28T03:51:06.219Z,10.90
2022-10-28T03:53:34.192Z,10.80
2022-10-28T03:56:04.112Z,10.90
2022-10-28T03:58:33.510Z,10.90
2022-10-28T04:01:03.144Z,11.00
2022-10-28T04:03:31.242Z,11.00
2022-10-28T04:06:01.490Z,10.90
2022-10-28T04:08:29.510Z,10.80
2022-10-28T04:10:57.523Z,10.90
2022-10-28T04:13:26.880Z,10.80
2022-10-28T04:15:54.854Z,10.80
2022-10-28T04:18:22.899Z,10.80
2022-10-28T04:20:50.884Z,10.80
2022-10-28T04:23:19.338Z,10.80
2022-10-28T04:25:47.509Z,10.80
2022-10-28T04:28:15.457Z,10.60
2022-10-28T04:30:44.815Z,10.50
2022-10-28T04:33:13.953Z,10.30
2022-10-28T04:35:43.183Z,10.30
2022-10-28T04:38:11.601Z,10.30
2022-10-28T04:40:39.812Z,10.40
2022-10-28T04:43:09.968Z,10.30
2022-10-28T04:45:39.083Z,10.30
2022-10-28T04:48:09.891Z,10.40
2022-10-28T04:50:38.200Z,10.40
2022-10-28T04:53:06.193Z,10.40
2022-10-28T04:55:34.221Z,10.40
2022-10-28T04:58:02.327Z,10.20
2022-10-28T05:00:31.010Z,10.30
2022-10-28T05:03:02.685Z,10.20
2022-10-28T05:05:32.200Z,10.20
2022-10-28T05:08:00.303Z,10.20
2022-10-28T05:10:30.447Z,10.40
2022-10-28T05:12:58.382Z,10.20
2022-10-28T05:15:27.157Z,10.30
2022-10-28T05:17:55.441Z,10.50
2022-10-28T05:20:24.148Z,10.60
2022-10-28T05:22:55.135Z,10.50
2022-10-28T05:25:23.987Z,10.50
2022-10-28T05:27:52.110Z,10.30
2022-10-28T05:30:20.349Z,10.40
2022-10-28T05:32:50.424Z,10.20
2022-10-28T05:35:20.981Z,10.20
2022-10-28T05:37:48.983Z,10.20
2022-10-28T05:40:18.491Z,10.30
2022-10-28T05:42:46.540Z,10.40
2022-10-28T05:45:15.060Z,10.50
2022-10-28T05:47:47.329Z,10.60
2022-10-28T05:50:17.407Z,10.70
2022-10-28T05:52:47.429Z,10.80
2022-10-28T05:55:15.999Z,10.80
2022-10-28T05:57:45.315Z,10.70
2022-10-28T06:00:14.944Z,10.70
2022-10-28T06:02:43.019Z,10.80
2022-10-28T06:05:11.778Z,11.00
2022-10-28T06:07:40.975Z,11.00
2022-10-28T06:10:10.790Z,11.00
2022-10-28T06:12:37.367Z,10.80
2022-10-28T06:15:07.980Z,10.50
2022-10-28T06:17:36.027Z,10.50
2022-10-28T06:20:05.375Z,10.40
2022-10-28T06:22:33.443Z,10.30
2022-10-28T06:25:01.521Z,10.30
2022-10-28T06:27:29.501Z,10.30
2022-10-28T06:29:57.460Z,10.40
2022-10-28T06:32:26.880Z,10.40
2022-10-28T06:34:54.826Z,10.50
2022-10-28T06:37:22.854Z,10.60
2022-10-28T06:39:52.060Z,10.60
2022-10-28T06:42:20.552Z,10.80
2022-10-28T06:44:49.502Z,10.80
2022-10-28T06:47:19.025Z,10.80
2022-10-28T06:49:48.348Z,10.80
2022-10-28T06:52:16.500Z,10.70
2022-10-28T06:54:44.622Z,10.80
2022-10-28T06:57:12.759Z,10.80
2022-10-28T06:59:40.885Z,10.80
2022-10-28T07:02:11.596Z,10.80
2022-10-28T07:04:39.995Z,10.80
2022-10-28T07:07:09.316Z,10.70
2022-10-28T07:09:39.574Z,10.60
2022-10-28T07:12:08.853Z,10.50
2022-10-28T07:14:37.111Z,10.40
2022-10-28T07:17:05.637Z,10.30
2022-10-28T07:19:33.880Z,10.20
2022-10-28T07:22:01.874Z,10.20
2022-10-28T07:24:31.379Z,10.20
2022-10-28T07:26:59.341Z,10.10
2022-10-28T07:29:27.333Z,10.10
2022-10-28T07:31:55.688Z,10.10
2022-10-28T07:34:26.900Z,10.20
2022-10-28T07:36:56.492Z,10.10
2022-10-28T07:39:24.809Z,10.10
2022-10-28T07:41:54.213Z,10.20
2022-10-28T07:44:22.347Z,10.20
2022-10-28T07:46:54.179Z,10.30
2022-10-28T07:49:25.362Z,10.40
2022-10-28T07:51:53.443Z,10.50
2022-10-28T07:54:21.529Z,10.70
2022-10-28T07:56:49.510Z,10.90
2022-10-28T07:59:25.750Z,11.10
2022-10-28T08:01:55.188Z,11.20
2022-10-28T08:04:23.267Z,11.30
2022-10-28T08:06:51.325Z,11.20
2022-10-28T08:09:19.683Z,11.20
2022-10-28T08:11:47.711Z,11.30
2022-10-28T08:14:16.192Z,11.30
2022-10-28T08:16:47.305Z,11.40
2022-10-28T08:19:15.508Z,11.40
2022-10-28T08:21:43.451Z,11.50
2022-10-28T08:24:11.437Z,11.50
2022-10-28T08:26:39.417Z,11.60
2022-10-28T08:29:08.210Z,11.70
2022-10-28T08:31:36.274Z,11.70
2022-10-28T08:34:06.204Z,11.80
2022-10-28T08:36:34.506Z,11.80
2022-10-28T08:39:03.100Z,11.90
2022-10-28T08:41:36.919Z,11.90
2022-10-28T08:44:24.918Z,11.90
2022-10-28T08:47:06.343Z,12.00
2022-10-28T08:49:40.645Z,12.00
2022-10-28T08:52:21.375Z,12.00
2022-10-28T08:54:53.814Z,12.10
2022-10-28T08:57:33.354Z,12.10
2022-10-28T09:00:03.257Z,12.10
2022-10-28T09:02:46.131Z,12.20
2022-10-28T09:05:22.968Z,12.20
2022-10-28T09:07:51.984Z,12.30
2022-10-28T09:10:31.308Z,12.30
2022-10-28T09:13:08.000Z,12.40
2022-10-28T09:15:43.859Z,12.50
2022-10-28T09:18:19.728Z,12.50
2022-10-28T09:20:54.602Z,12.60
2022-10-28T09:23:25.153Z,12.70
2022-10-28T09:26:08.148Z,12.80
2022-10-28T09:28:50.203Z,12.80
2022-10-28T09:31:26.036Z,12.90
2022-10-28T09:34:08.025Z,13.00
2022-10-28T09:36:42.047Z,13.00
2022-10-28T09:39:17.951Z,13.00
2022-10-28T09:41:49.055Z,13.10
2022-10-28T09:44:21.359Z,13.10
2022-10-28T09:46:52.176Z,13.10
2022-10-28T09:49:25.139Z,13.20
2022-10-28T09:52:00.487Z,13.30
2022-10-28T09:54:34.571Z,13.30
2022-10-28T09:57:04.326Z,13.40
2022-10-28T09:59:32.888Z,13.50
2022-10-28T10:02:01.160Z,13.50
2022-10-28T10:04:32.005Z,13.70
2022-10-28T10:07:06.852Z,13.80
2022-10-28T10:09:37.036Z,13.80
2022-10-28T10:12:09.459Z,13.80
2022-10-28T10:14:41.759Z,13.90
2022-10-28T10:17:16.095Z,14.00
2022-10-28T10:20:04.123Z,14.00
2022-10-28T10:22:35.115Z,14.00
2022-10-28T10:25:03.676Z,14.10
2022-10-28T10:27:32.679Z,14.10
2022-10-28T10:30:01.090Z,14.20
2022-10-28T10:32:31.496Z,14.40
2022-10-28T10:35:05.171Z,14.40
2022-10-28T10:37:36.855Z,14.50
2022-10-28T10:40:19.282Z,14.50
2022-10-28T10:43:03.474Z,14.60
2022-10-28T10:45:35.586Z,14.60
2022-10-28T10:48:13.105Z,14.60
2022-10-28T10:50:42.057Z,14.70
2022-10-28T10:53:21.330Z,14.90
2022-10-28T10:55:57.450Z,14.90
2022-10-28T10:58:28.412Z,15.00
2022-10-28T11:00:59.026Z,15.10
2022-10-28T11:03:31.746Z,15.10
2022-10-28T11:08:58.252Z,15.30
2022-10-28T11:11:34.639Z,15.40
2022-10-28T11:14:08.636Z,15.30
2022-10-28T11:16:49.599Z,15.40
2022-10-28T11:19:22.327Z,15.40
2022-10-28T11:22:23.163Z,15.40
2022-10-28T11:25:11.629Z,15.40
2022-10-28T11:27:55.292Z,15.50
2022-10-28T11:30:33.567Z,15.50
2022-10-28T11:33:28.846Z,15.70
2022-10-28T11:36:04.964Z,15.80
2022-10-28T11:38:58.545Z,15.80
2022-10-28T11:41:38.361Z,15.80
2022-10-28T11:44:18.628Z,15.90
2022-10-28T11:46:56.635Z,15.90
2022-10-28T11:49:50.016Z,16.00
2022-10-28T11:52:28.976Z,16.00
2022-10-28T11:55:06.990Z,16.10
2022-10-28T11:57:48.752Z,16.20
2022-10-28T12:00:29.039Z,16.20
2022-10-28T12:03:20.092Z,16.20
2022-10-28T12:05:52.680Z,16.30
2022-10-28T12:08:36.142Z,16.30
2022-10-28T12:11:21.440Z,16.40
2022-10-28T12:16:40.966Z,16.50
2022-10-28T12:19:14.906Z,16.50
2022-10-28T12:21:46.566Z,16.60
2022-10-28T12:24:18.622Z,16.70
2022-10-28T12:26:51.440Z,16.80
2022-10-28T12:29:25.574Z,16.70
2022-10-28T12:31:57.101Z,16.70
2022-10-28T12:34:33.138Z,16.70
2022-10-28T12:37:09.061Z,16.80
2022-10-28T12:39:43.602Z,16.90
2022-10-28T12:42:17.446Z,17.00
2022-10-28T12:44:48.836Z,17.00
2022-10-28T12:47:28.713Z,16.90
2022-10-28T12:50:05.442Z,16.90
2022-10-28T12:52:41.455Z,16.90
2022-10-28T12:55:20.327Z,16.90
2022-10-28T12:57:53.622Z,16.80
2022-10-28T13:00:27.046Z,16.80
2022-10-28T13:03:03.095Z,16.80
2022-10-28T13:05:38.626Z,16.70
2022-10-28T13:08:35.844Z,16.60
2022-10-28T13:11:30.804Z,16.60
2022-10-28T13:14:03.484Z,16.60
2022-10-28T13:16:56.749Z,16.50
2022-10-28T13:19:47.233Z,16.50
2022-10-28T13:22:44.899Z,16.50
2022-10-28T13:25:27.979Z,16.50
2022-10-28T13:27:57.872Z,16.40
2022-10-28T13:30:26.755Z,16.40
2022-10-28T13:33:05.187Z,16.40
2022-10-28T13:35:33.898Z,16.40
2022-10-28T13:38:03.772Z,16.40
2022-10-28T13:41:05.201Z,16.40
2022-10-28T13:43:58.726Z,16.40
2022-10-28T13:47:02.199Z,16.40
2022-10-28T13:49:32.506Z,16.40
2022-10-28T13:52:19.324Z,16.40
2022-10-28T13:54:58.891Z,16.40
2022-10-28T13:57:29.813Z,16.40
2022-10-28T13:59:59.774Z,16.40
2022-10-28T14:02:37.206Z,16.40
2022-10-28T14:05:09.274Z,16.40
2022-10-28T14:07:39.395Z,16.30
2022-10-28T14:10:21.061Z,16.30
2022-10-28T14:12:53.584Z,16.30
2022-10-28T14:15:25.864Z,16.30
2022-10-28T14:18:05.164Z,16.30
2022-10-28T14:20:59.133Z,16.30
2022-10-28T14:24:10.487Z,16.20
2022-10-28T14:27:30.760Z,16.30
2022-10-28T14:30:21.443Z,16.30
2022-10-28T14:33:22.314Z,16.30
2022-10-28T14:36:01.000Z,16.30
2022-10-28T14:39:11.474Z,16.30
2022-10-28T14:42:05.901Z,16.30
2022-10-28T14:44:53.574Z,16.20
2022-10-28T14:47:40.844Z,16.20
2022-10-28T14:50:18.238Z,16.20
2022-10-28T14:52:48.966Z,16.10
2022-10-28T14:55:25.169Z,16.10
2022-10-28T14:57:53.562Z,16.10
2022-10-28T15:00:25.923Z,16.10
2022-10-28T15:02:55.258Z,16.10
2022-10-28T15:05:24.805Z,16.10
2022-10-28T15:07:57.916Z,16.10
2022-10-28T15:10:29.636Z,16.00
2022-10-28T15:12:59.110Z,16.00
2022-10-28T15:15:28.654Z,16.00
2022-10-28T15:17:57.442Z,16.00
2022-10-28T15:20:28.307Z,15.90
2022-10-28T15:23:13.884Z,15.90
2022-10-28T15:25:41.875Z,15.80
2022-10-28T15:28:11.925Z,15.80
2022-10-28T15:30:45.817Z,15.80
2022-10-28T15:33:22.192Z,15.80
2022-10-28T15:35:50.250Z,15.70
2022-10-28T15:38:39.228Z,15.70
2022-10-28T15:41:40.079Z,15.60
2022-10-28T15:44:28.064Z,15.60
2022-10-28T15:46:58.404Z,15.60
2022-10-28T15:49:36.281Z,15.50
2022-10-28T15:52:41.579Z,15.50
2022-10-28T15:56:06.479Z,15.50
2022-10-28T15:58:35.765Z,15.40
2022-10-28T16:01:05.877Z,15.40
2022-10-28T16:03:43.973Z,15.30
2022-10-28T16:06:23.807Z,15.30
2022-10-28T16:09:02.155Z,15.20
2022-10-28T16:11:32.515Z,15.20
2022-10-28T16:14:04.588Z,15.20
2022-10-28T16:16:33.655Z,15.10
2022-10-28T16:19:09.358Z,15.10
2022-10-28T16:21:39.186Z,15.00
2022-10-28T16:24:07.878Z,15.00
2022-10-28T16:26:38.387Z,14.90
2022-10-28T16:29:06.411Z,14.90
2022-10-28T16:31:35.325Z,14.90
2022-10-28T16:34:03.444Z,14.90
2022-10-28T16:36:32.368Z,14.90
2022-10-28T16:39:00.300Z,14.80
2022-10-28T16:41:28.262Z,14.80
2022-10-28T16:43:57.773Z,14.80
2022-10-28T16:46:25.772Z,14.80
2022-10-28T16:48:53.751Z,14.80
2022-10-28T16:51:21.680Z,14.70
2022-10-28T16:53:50.918Z,14.70
2022-10-28T16:56:19.298Z,14.70
2022-10-28T16:58:47.252Z,14.70
2022-10-28T17:01:20.827Z,14.60
2022-10-28T17:03:49.030Z,14.60
2022-10-28T17:06:17.019Z,14.60
2022-10-28T17:11:33.152Z,14.50
2022-10-28T17:14:01.204Z,14.50
2022-10-28T17:16:30.516Z,14.50
2022-10-28T17:18:58.520Z,14.40
2022-10-28T17:21:26.799Z,14.50
2022-10-28T17:23:54.747Z,14.50
2022-10-28T17:26:22.701Z,14.40
2022-10-28T17:28:52.676Z,14.40
2022-10-28T17:31:24.813Z,14.40
2022-10-28T17:33:55.923Z,14.30
2022-10-28T17:36:24.289Z,14.30
2022-10-28T17:38:52.263Z,14.30
2022-10-28T17:41:20.583Z,14.20
2022-10-28T17:43:48.530Z,14.20
2022-10-28T17:46:16.577Z,14.10
2022-10-28T17:48:46.664Z,14.20
2022-10-28T17:51:17.393Z,14.10
2022-10-28T17:53:45.540Z,14.10
2022-10-28T17:56:16.687Z,14.10
2022-10-28T17:58:44.751Z,14.10
2022-10-28T18:01:12.979Z,14.10
2022-10-28T18:03:41.002Z,14.00
2022-10-28T18:06:12.401Z,14.00
2022-10-28T18:08:44.130Z,14.00
2022-10-28T18:11:13.925Z,14.00
2022-10-28T18:13:45.000Z,14.00
2022-10-28T18:16:15.067Z,13.90
2022-10-28T18:18:43.143Z,13.90
2022-10-28T18:21:11.809Z,13.90
2022-10-28T18:23:41.630Z,13.80
2022-10-28T18:26:13.733Z,13.80
2022-10-28T18:28:43.550Z,13.80
2022-10-28T18:31:14.101Z,13.80
2022-10-28T18:33:43.130Z,13.80
2022-10-28T18:36:12.998Z,13.80
2022-10-28T18:38:42.686Z,13.70
2022-10-28T18:41:12.189Z,13.70
2022-10-28T18:43:40.689Z,13.70
2022-10-28T18:46:09.451Z,13.70
2022-10-28T18:48:37.626Z,13.60
2022-10-28T18:51:09.479Z,13.60
2022-10-28T18:53:38.914Z,13.60
2022-10-28T18:56:10.950Z,13.60
2022-10-28T18:58:39.068Z,13.60
2022-10-28T19:01:08.896Z,13.60
2022-10-28T19:03:37.684Z,13.50
2022-10-28T19:06:07.971Z,13.50
2022-10-28T19:08:36.319Z,13.50
2022-10-28T19:11:05.180Z,13.50
2022-10-28T19:13:36.366Z,13.50
2022-10-28T19:16:04.909Z,13.50
2022-10-28T19:18:35.407Z,13.50
2022-10-28T19:21:04.522Z,13.50
2022-10-28T19:23:32.799Z,13.40
2022-10-28T19:26:01.619Z,13.40
2022-10-28T19:28:29.753Z,13.40
2022-10-28T19:31:03.559Z,13.40
2022-10-28T19:33:32.424Z,13.30
2022-10-28T19:36:04.980Z,13.40
2022-10-28T19:38:34.315Z,13.40
2022-10-28T19:41:03.888Z,13.40
2022-10-28T19:43:31.918Z,13.40
2022-10-28T19:46:10.962Z,13.30
2022-10-28T19:48:40.091Z,13.30
2022-10-28T19:51:08.446Z,13.30
2022-10-28T19:53:36.487Z,13.30
2022-10-28T19:56:06.130Z,13.30
2022-10-28T19:58:35.042Z,13.20
2022-10-28T20:01:04.930Z,13.20
2022-10-28T20:03:35.540Z,13.20
2022-10-28T20:06:08.872Z,13.20
2022-10-28T20:08:37.998Z,13.20
2022-10-28T20:11:07.336Z,13.20
2022-10-28T20:13:36.148Z,13.10
2022-10-28T20:16:06.725Z,13.00
2022-10-28T20:18:36.106Z,12.90
2022-10-28T20:21:05.680Z,13.00
2022-10-28T20:23:35.789Z,13.10
2022-10-28T20:26:04.100Z,13.10
2022-10-28T20:28:32.261Z,13.10
2022-10-28T20:31:02.019Z,13.10
2022-10-28T20:33:30.980Z,13.10
2022-10-28T20:36:00.553Z,13.20
2022-10-28T20:38:29.200Z,13.20
2022-10-28T20:40:59.313Z,13.00
2022-10-28T20:43:29.258Z,13.10
2022-10-28T20:45:59.704Z,13.20
2022-10-28T20:48:28.871Z,13.20
2022-10-28T20:50:58.591Z,13.20
2022-10-28T20:53:31.300Z,13.30
2022-10-28T20:55:59.454Z,13.20
2022-10-28T20:58:29.982Z,13.20
2022-10-28T21:01:03.635Z,13.10
2022-10-28T21:03:31.662Z,13.10
2022-10-28T21:05:59.995Z,13.10
2022-10-28T21:08:29.374Z,13.00
2022-10-28T21:10:57.481Z,12.80
2022-10-28T21:13:25.551Z,12.80
2022-10-28T21:15:56.606Z,12.90
2022-10-28T21:18:26.005Z,13.00
2022-10-28T21:20:57.775Z,13.10
2022-10-28T21:23:26.077Z,13.10
2022-10-28T21:25:55.761Z,13.10
2022-10-28T21:28:24.004Z,13.10
2022-10-28T21:30:52.147Z,13.10
2022-10-28T21:33:20.175Z,13.00
2022-10-28T21:35:56.957Z,12.70
2022-10-28T21:38:25.582Z,12.60
2022-10-28T21:41:01.885Z,12.50
2022-10-28T21:43:30.893Z,12.50
2022-10-28T21:45:59.223Z,12.60
2022-10-28T21:48:28.350Z,12.60
2022-10-28T21:50:57.932Z,12.70
2022-10-28T21:53:26.842Z,12.80
2022-10-28T21:56:02.579Z,12.80
2022-10-28T21:58:32.214Z,12.80
2022-10-28T22:01:05.067Z,12.60
2022-10-28T22:03:33.041Z,12.70
2022-10-28T22:06:01.034Z,12.70
2022-10-28T22:08:29.563Z,12.70
2022-10-28T22:11:04.673Z,12.60
2022-10-28T22:13:34.278Z,12.60
2022-10-28T22:16:04.063Z,12.60
2022-10-28T22:18:33.730Z,12.70
2022-10-28T22:21:06.639Z,12.70
2022-10-28T22:23:34.826Z,12.80
2022-10-28T22:26:03.392Z,12.70
2022-10-28T22:28:33.175Z,12.70
2022-10-28T22:31:01.707Z,12.60
2022-10-28T22:33:30.135Z,12.50
2022-10-28T22:35:58.707Z,12.30
2022-10-28T22:38:27.116Z,12.30
2022-10-28T22:41:05.828Z,12.20
2022-10-28T22:43:35.874Z,12.20
2022-10-28T22:46:05.105Z,12.30
2022-10-28T22:48:33.565Z,12.40
2022-10-28T22:51:02.262Z,12.50
2022-10-28T22:53:30.574Z,12.50
2022-10-28T22:55:59.370Z,12.40
2022-10-28T22:58:28.587Z,12.40
2022-10-28T23:01:07.740Z,12.40
2022-10-28T23:03:37.187Z,12.40
2022-10-28T23:06:05.967Z,12.30
2022-10-28T23:08:36.425Z,12.40
2022-10-28T23:11:04.825Z,12.30
2022-10-28T23:13:33.153Z,12.40
2022-10-28T23:16:04.523Z,12.50
2022-10-28T23:18:34.231Z,12.50
2022-10-28T23:21:07.320Z,12.50
2022-10-28T23:23:35.665Z,12.40
2022-10-28T23:26:04.058Z,12.20
2022-10-28T23:28:32.112Z,12.10
2022-10-28T23:31:03.670Z,12.10
2022-10-28T23:33:34.448Z,11.90
2022-10-28T23:36:04.386Z,11.80
2022-10-28T23:38:32.928Z,11.80
2022-10-28T23:41:02.427Z,11.90
2022-10-28T23:43:31.218Z,11.90
2022-10-28T23:45:59.794Z,12.00
2022-10-28T23:48:29.035Z,11.90
2022-10-28T23:50:58.915Z,11.80
2022-10-28T23:56:00.347Z,11.80
2022-10-28T23:58:28.332Z,11.80
